Terminal Aerodrome Forecast
Issued by NWS Cleveland, OH

Home | Current Version | Previous Version | Graphics & Text | Print | Product List | Glossary Off
Versions: 1 2 3 4 5 6 7 8 9 10 11 12 13 14

000
FTUS41 KCLE 111700
TAFYNG
TAF
KYNG 111720Z 1118/1218 34005KT P6SM SCT050
     FM120100 VRB03KT P6SM SCT250
     FM121500 21006KT P6SM FEW050 SCT200=

USA.gov is the U.S. government's official web portal to all federal, state and local government web resources and services.